createdAt,value
2022-08-05T00:00:50.032Z,99.90
2022-08-05T00:03:17.392Z,99.90
2022-08-05T00:06:06.426Z,99.90
2022-08-05T00:08:34.701Z,99.90
2022-08-05T00:11:05.112Z,99.90
2022-08-05T00:13:47.295Z,99.90
2022-08-05T00:16:20.192Z,99.90
2022-08-05T00:19:04.368Z,99.90
2022-08-05T00:21:31.294Z,99.90
2022-08-05T00:24:10.002Z,99.90
2022-08-05T00:26:38.859Z,99.90
2022-08-05T00:29:10.384Z,99.90
2022-08-05T00:31:54.085Z,99.90
2022-08-05T00:34:54.291Z,99.90
2022-08-05T00:37:14.288Z,99.90
2022-08-05T00:39:58.764Z,99.90
2022-08-05T00:42:37.914Z,99.90
2022-08-05T00:45:08.690Z,99.90
2022-08-05T00:47:56.747Z,99.90
2022-08-05T00:50:26.013Z,99.90
2022-08-05T00:52:55.089Z,99.90
2022-08-05T00:55:23.405Z,99.90
2022-08-05T00:58:11.158Z,99.90
2022-08-05T01:00:39.663Z,99.90
2022-08-05T01:03:07.889Z,99.90
2022-08-05T01:05:35.287Z,99.90
2022-08-05T01:08:40.070Z,99.90
2022-08-05T01:10:59.600Z,99.90
2022-08-05T01:14:08.795Z,99.90
2022-08-05T01:16:54.572Z,99.90
2022-08-05T01:19:30.102Z,99.90
2022-08-05T01:22:27.742Z,99.90
2022-08-05T01:25:39.641Z,99.90
2022-08-05T01:28:35.055Z,99.90
2022-08-05T01:31:16.878Z,99.90
2022-08-05T01:33:53.466Z,99.90
2022-08-05T01:36:28.053Z,99.90
2022-08-05T01:38:56.695Z,99.90
2022-08-05T01:41:31.056Z,99.90
2022-08-05T01:44:02.038Z,99.90
2022-08-05T01:46:42.191Z,99.90
2022-08-05T01:49:24.182Z,99.90
2022-08-05T01:51:58.040Z,99.90
2022-08-05T01:54:46.123Z,99.90
2022-08-05T01:58:11.544Z,99.90
2022-08-05T02:00:06.454Z,99.90
2022-08-05T02:02:53.644Z,99.90
2022-08-05T02:05:28.631Z,99.90
2022-08-05T02:08:01.287Z,99.90
2022-08-05T02:10:32.860Z,99.90
2022-08-05T02:13:24.740Z,99.90
2022-08-05T02:16:24.340Z,99.90
2022-08-05T02:19:11.724Z,99.90
2022-08-05T02:21:49.858Z,99.90
2022-08-05T02:24:23.399Z,99.90
2022-08-05T02:26:58.251Z,99.90
2022-08-05T02:29:59.839Z,99.90
2022-08-05T02:32:19.741Z,99.90
2022-08-05T02:34:54.993Z,99.90
2022-08-05T02:37:23.880Z,99.90
2022-08-05T02:39:53.094Z,99.90
2022-08-05T02:42:26.057Z,99.90
2022-08-05T02:44:57.049Z,99.90
2022-08-05T02:47:26.187Z,99.90
2022-08-05T02:50:14.563Z,99.90
2022-08-05T02:52:46.875Z,99.90
2022-08-05T02:55:14.522Z,99.90
2022-08-05T02:58:20.176Z,99.90
2022-08-05T03:00:35.097Z,99.90
2022-08-05T03:03:10.122Z,99.90
2022-08-05T03:06:55.754Z,99.90
2022-08-05T03:08:27.160Z,99.90
2022-08-05T03:11:53.256Z,99.90
2022-08-05T03:13:51.718Z,99.90
2022-08-05T03:16:30.057Z,99.90
2022-08-05T03:18:59.144Z,99.90
2022-08-05T03:21:28.723Z,99.90
2022-08-05T03:23:57.685Z,99.90
2022-08-05T03:26:31.902Z,99.90
2022-08-05T03:28:59.903Z,99.90
2022-08-05T03:31:55.639Z,99.90
2022-08-05T03:34:14.655Z,99.90
2022-08-05T03:36:41.614Z,99.90
2022-08-05T03:39:13.134Z,99.90
2022-08-05T03:41:47.276Z,99.90
2022-08-05T03:44:19.868Z,99.90
2022-08-05T03:46:47.546Z,99.90
2022-08-05T03:49:15.789Z,99.90
2022-08-05T03:52:37.587Z,99.90
2022-08-05T03:56:01.592Z,99.90
2022-08-05T03:57:45.619Z,99.90
2022-08-05T04:00:15.770Z,99.90
2022-08-05T04:02:57.915Z,99.90
2022-08-05T04:05:33.704Z,99.90
2022-08-05T04:08:30.089Z,99.90
2022-08-05T04:10:58.438Z,99.90
2022-08-05T04:13:49.376Z,99.90
2022-08-05T04:16:14.505Z,99.90
2022-08-05T04:18:41.836Z,99.90
2022-08-05T04:22:05.130Z,99.90
2022-08-05T04:24:06.477Z,99.90
2022-08-05T04:26:35.954Z,99.90
2022-08-05T04:29:07.153Z,99.90
2022-08-05T04:31:38.685Z,99.90
2022-08-05T04:34:31.307Z,99.90
2022-08-05T04:36:54.971Z,99.90
2022-08-05T04:39:22.270Z,99.90
2022-08-05T04:41:51.226Z,99.90
2022-08-05T04:44:21.531Z,99.90
2022-08-05T04:46:58.479Z,99.90
2022-08-05T04:49:38.767Z,99.90
2022-08-05T04:52:13.187Z,99.90
2022-08-05T04:54:40.208Z,99.90
2022-08-05T04:57:07.155Z,99.90
2022-08-05T04:59:38.326Z,99.90
2022-08-05T05:02:37.314Z,99.90
2022-08-05T05:05:02.334Z,99.90
2022-08-05T05:07:32.249Z,99.90
2022-08-05T05:10:02.179Z,99.90
2022-08-05T05:12:29.842Z,99.90
2022-08-05T05:14:56.723Z,99.90
2022-08-05T05:17:55.811Z,99.90
2022-08-05T05:20:12.303Z,99.90
2022-08-05T05:22:40.926Z,99.90
2022-08-05T05:25:16.842Z,99.90
2022-08-05T05:27:48.606Z,99.90
2022-08-05T05:30:29.804Z,99.90
2022-08-05T05:33:00.840Z,99.90
2022-08-05T05:35:38.053Z,99.90
2022-08-05T05:38:09.419Z,99.90
2022-08-05T05:40:48.368Z,99.90
2022-08-05T05:43:54.583Z,99.90
2022-08-05T05:46:17.579Z,99.90
2022-08-05T05:48:48.341Z,99.90
2022-08-05T05:51:27.842Z,99.90
2022-08-05T05:53:58.511Z,99.90
2022-08-05T05:56:31.558Z,99.90
2022-08-05T05:59:03.558Z,97.30
2022-08-05T06:01:37.675Z,99.20
2022-08-05T06:04:11.688Z,99.90
2022-08-05T06:06:47.670Z,99.90
2022-08-05T06:09:24.839Z,99.90
2022-08-05T06:12:01.457Z,99.90
2022-08-05T06:14:30.897Z,99.90
2022-08-05T06:16:58.387Z,99.90
2022-08-05T06:19:35.052Z,99.90
2022-08-05T06:22:04.083Z,99.90
2022-08-05T06:24:32.015Z,99.90
2022-08-05T06:26:58.920Z,99.90
2022-08-05T06:29:48.964Z,99.90
2022-08-05T06:32:21.290Z,99.90
2022-08-05T06:34:57.360Z,99.90
2022-08-05T06:37:55.842Z,99.90
2022-08-05T06:40:18.213Z,97.20
2022-08-05T06:42:51.679Z,90.60
2022-08-05T06:45:21.524Z,83.50
2022-08-05T06:48:36.023Z,79.10
2022-08-05T06:50:54.565Z,75.30
2022-08-05T06:53:27.794Z,72.60
2022-08-05T06:55:59.831Z,69.90
2022-08-05T06:58:35.460Z,68.70
2022-08-05T07:01:05.910Z,66.20
2022-08-05T07:03:33.925Z,65.20
2022-08-05T07:06:05.377Z,65.60
2022-08-05T07:08:33.309Z,65.10
2022-08-05T07:11:00.200Z,64.80
2022-08-05T07:13:57.596Z,63.30
2022-08-05T07:18:01.614Z,63.50
2022-08-05T07:22:28.233Z,62.10
2022-08-05T07:24:58.471Z,61.70
2022-08-05T07:27:27.673Z,58.90
2022-08-05T07:30:30.115Z,59.20
2022-08-05T07:32:59.179Z,59.90
2022-08-05T07:36:04.526Z,59.10
2022-08-05T07:38:34.702Z,59.50
2022-08-05T07:42:07.209Z,58.80
2022-08-05T07:43:57.052Z,60.80
2022-08-05T07:46:29.213Z,62.40
2022-08-05T07:49:02.590Z,65.40
2022-08-05T07:51:48.795Z,68.30
2022-08-05T07:54:31.226Z,70.00
2022-08-05T07:57:22.639Z,70.40
2022-08-05T07:59:49.541Z,71.20
2022-08-05T08:02:18.071Z,70.40
2022-08-05T08:04:47.213Z,70.60
2022-08-05T08:07:23.059Z,68.60
2022-08-05T08:09:53.077Z,69.20
2022-08-05T08:12:35.549Z,69.00
2022-08-05T08:15:09.447Z,66.60
2022-08-05T08:17:46.109Z,67.00
2022-08-05T08:20:44.015Z,66.90
2022-08-05T08:23:04.637Z,67.50
2022-08-05T08:26:00.107Z,69.10
2022-08-05T08:28:36.716Z,68.60
2022-08-05T08:31:07.087Z,68.10
2022-08-05T08:33:38.063Z,67.70
2022-08-05T08:36:38.474Z,67.40
2022-08-05T08:38:55.721Z,68.20
2022-08-05T08:41:26.294Z,67.70
2022-08-05T08:45:22.975Z,67.50
2022-08-05T08:47:03.886Z,66.70
2022-08-05T08:50:23.068Z,68.30
2022-08-05T08:52:41.445Z,67.60
2022-08-05T08:55:19.619Z,67.00
2022-08-05T08:58:02.376Z,68.00
2022-08-05T09:00:30.918Z,64.90
2022-08-05T09:02:59.181Z,63.30
2022-08-05T09:05:38.419Z,64.20
2022-08-05T09:08:13.864Z,63.00
2022-08-05T09:10:46.738Z,65.80
2022-08-05T09:13:15.333Z,66.00
2022-08-05T09:15:43.185Z,67.10
2022-08-05T09:18:13.475Z,68.10
2022-08-05T09:20:43.585Z,67.20
2022-08-05T09:23:21.787Z,69.10
2022-08-05T09:26:06.331Z,68.40
2022-08-05T09:28:35.027Z,68.30
2022-08-05T09:31:18.313Z,68.70
2022-08-05T09:33:54.892Z,68.30
2022-08-05T09:36:27.650Z,68.60
2022-08-05T09:39:16.481Z,68.50
2022-08-05T09:42:01.130Z,68.50
2022-08-05T09:44:38.403Z,68.70
2022-08-05T09:47:20.582Z,70.00
2022-08-05T09:50:02.164Z,69.70
2022-08-05T09:52:33.670Z,69.80
2022-08-05T09:55:58.277Z,68.50
2022-08-05T09:57:59.961Z,68.20
2022-08-05T10:00:27.750Z,67.70
2022-08-05T10:02:58.422Z,66.60
2022-08-05T10:05:28.096Z,66.60
2022-08-05T10:08:35.170Z,66.10
2022-08-05T10:10:54.601Z,66.90
2022-08-05T10:13:47.436Z,65.70
2022-08-05T10:16:37.909Z,65.70
2022-08-05T10:19:11.807Z,66.70
2022-08-05T10:21:40.214Z,65.60
2022-08-05T10:24:13.649Z,65.70
2022-08-05T10:26:51.910Z,65.60
2022-08-05T10:29:23.497Z,66.70
2022-08-05T10:32:54.991Z,66.30
2022-08-05T10:35:01.131Z,66.70
2022-08-05T10:37:40.423Z,66.10
2022-08-05T10:40:19.561Z,65.60
2022-08-05T10:42:50.765Z,65.10
2022-08-05T10:45:40.324Z,65.60
2022-08-05T10:48:56.535Z,66.10
2022-08-05T10:51:29.167Z,65.10
2022-08-05T10:54:01.763Z,64.80
2022-08-05T10:56:49.414Z,66.40
2022-08-05T11:00:02.043Z,65.90
2022-08-05T11:02:38.804Z,64.90
2022-08-05T11:05:05.896Z,66.10
2022-08-05T11:08:01.264Z,65.40
2022-08-05T11:10:50.289Z,66.80
2022-08-05T11:13:54.967Z,65.70
2022-08-05T11:16:33.797Z,65.10
2022-08-05T11:20:10.007Z,65.50
2022-08-05T11:22:43.513Z,66.00
2022-08-05T11:26:04.311Z,65.50
2022-08-05T11:28:30.860Z,66.60
2022-08-05T11:31:06.183Z,67.10
2022-08-05T11:33:49.191Z,66.30
2022-08-05T11:36:40.496Z,66.10
2022-08-05T11:39:13.643Z,66.90
2022-08-05T11:42:01.357Z,66.30
2022-08-05T11:44:53.287Z,66.60
2022-08-05T11:47:49.047Z,66.80
2022-08-05T11:50:14.243Z,66.40
2022-08-05T11:52:44.108Z,66.90
2022-08-05T11:55:15.895Z,66.90
2022-08-05T11:58:10.320Z,66.80
2022-08-05T12:00:38.096Z,67.70
2022-08-05T12:03:28.875Z,67.70
2022-08-05T12:06:06.003Z,66.90
2022-08-05T12:08:33.881Z,65.30
2022-08-05T12:11:05.989Z,66.30
2022-08-05T12:13:48.943Z,67.10
2022-08-05T12:16:19.338Z,69.70
2022-08-05T12:18:52.299Z,68.90
2022-08-05T12:21:30.633Z,70.30
2022-08-05T12:24:04.757Z,69.20
2022-08-05T12:26:44.585Z,69.60
2022-08-05T12:29:16.274Z,69.70
2022-08-05T12:31:55.432Z,68.70
2022-08-05T12:34:31.356Z,69.20
2022-08-05T12:37:10.560Z,68.40
2022-08-05T12:39:41.085Z,68.80
2022-08-05T12:42:14.923Z,69.20
2022-08-05T12:44:43.202Z,68.30
2022-08-05T12:47:12.523Z,67.80
2022-08-05T12:50:04.071Z,69.10
2022-08-05T12:52:35.402Z,68.50
2022-08-05T12:55:26.680Z,68.80
2022-08-05T12:58:38.615Z,67.60
2022-08-05T13:02:01.165Z,67.90
2022-08-05T13:03:42.170Z,70.60
2022-08-05T13:06:17.623Z,67.20
2022-08-05T13:08:51.545Z,67.10
2022-08-05T13:11:25.661Z,66.50
2022-08-05T13:14:36.100Z,65.90
2022-08-05T13:17:31.487Z,66.60
2022-08-05T13:20:15.949Z,66.90
2022-08-05T13:22:52.795Z,66.90
2022-08-05T13:25:22.193Z,66.20
2022-08-05T13:28:07.908Z,66.60
2022-08-05T13:30:39.281Z,65.30
2022-08-05T13:33:06.367Z,66.00
2022-08-05T13:35:47.406Z,66.70
2022-08-05T13:38:30.243Z,66.90
2022-08-05T13:41:01.020Z,67.00
2022-08-05T13:43:44.304Z,67.50
2022-08-05T13:46:16.358Z,67.50
2022-08-05T13:49:01.011Z,66.70
2022-08-05T13:51:40.177Z,67.20
2022-08-05T13:54:12.925Z,67.00
2022-08-05T13:56:51.471Z,66.60
2022-08-05T13:59:24.217Z,66.90
2022-08-05T14:01:57.968Z,67.60
2022-08-05T14:04:51.736Z,67.40
2022-08-05T14:07:26.423Z,67.10
2022-08-05T14:10:18.763Z,68.10
2022-08-05T14:12:55.226Z,68.50
2022-08-05T14:16:08.237Z,68.10
2022-08-05T14:18:14.665Z,68.30
2022-08-05T14:20:47.126Z,68.10
2022-08-05T14:23:24.532Z,68.10
2022-08-05T14:25:58.198Z,67.80
2022-08-05T14:28:28.402Z,68.20
2022-08-05T14:30:56.448Z,68.10
2022-08-05T14:33:23.703Z,67.40
2022-08-05T14:35:52.318Z,67.60
2022-08-05T14:38:32.892Z,68.40
2022-08-05T14:41:05.938Z,67.40
2022-08-05T14:43:57.753Z,68.50
2022-08-05T14:46:29.015Z,67.70
2022-08-05T14:49:06.467Z,67.50
2022-08-05T14:51:36.413Z,67.50
2022-08-05T14:54:25.940Z,68.20
2022-08-05T14:56:54.658Z,68.10
2022-08-05T14:59:22.255Z,67.40
2022-08-05T15:01:50.493Z,67.10
2022-08-05T15:04:20.638Z,67.00
2022-08-05T15:06:50.688Z,67.00
2022-08-05T15:09:54.184Z,67.00
2022-08-05T15:12:16.583Z,67.50
2022-08-05T15:14:49.933Z,67.30
2022-08-05T15:17:46.059Z,68.00
2022-08-05T15:20:09.774Z,68.60
2022-08-05T15:22:44.856Z,70.10
2022-08-05T15:25:14.489Z,69.90
2022-08-05T15:27:42.875Z,70.20
2022-08-05T15:30:19.099Z,70.70
2022-08-05T15:32:46.777Z,70.60
2022-08-05T15:35:14.730Z,69.80
2022-08-05T15:38:09.094Z,69.60
2022-08-05T15:40:58.256Z,69.10
2022-08-05T15:43:20.280Z,69.10
2022-08-05T15:46:00.649Z,69.40
2022-08-05T15:48:29.902Z,69.90
2022-08-05T15:50:56.983Z,69.80
2022-08-05T15:53:26.317Z,69.90
2022-08-05T15:56:02.762Z,70.40
2022-08-05T15:58:35.554Z,71.00
2022-08-05T16:01:17.407Z,71.00
2022-08-05T16:03:48.404Z,70.60
2022-08-05T16:06:19.676Z,70.30
2022-08-05T16:08:47.870Z,69.60
2022-08-05T16:11:18.085Z,70.30
2022-08-05T16:13:48.450Z,70.90
2022-08-05T16:16:25.251Z,70.80
2022-08-05T16:18:53.074Z,70.90
2022-08-05T16:21:20.811Z,70.70
2022-08-05T16:24:12.880Z,71.20
2022-08-05T16:26:57.017Z,70.80
2022-08-05T16:29:25.513Z,70.80
2022-08-05T16:31:57.393Z,71.10
2022-08-05T16:34:26.351Z,71.40
2022-08-05T16:36:54.607Z,71.60
2022-08-05T16:39:22.731Z,70.80
2022-08-05T16:42:15.145Z,71.10
2022-08-05T16:44:44.594Z,70.40
2022-08-05T16:47:28.998Z,70.80
2022-08-05T16:50:05.252Z,70.80
2022-08-05T16:52:33.577Z,71.70
2022-08-05T16:55:00.741Z,71.90
2022-08-05T16:57:42.944Z,71.30
2022-08-05T17:00:26.262Z,71.30
2022-08-05T17:03:02.917Z,71.50
2022-08-05T17:05:31.008Z,71.80
2022-08-05T17:07:58.221Z,71.50
2022-08-05T17:10:26.415Z,71.60
2022-08-05T17:12:57.833Z,71.80
2022-08-05T17:15:24.948Z,72.30
2022-08-05T17:18:14.081Z,72.60
2022-08-05T17:20:41.922Z,72.00
2022-08-05T17:24:03.270Z,72.20
2022-08-05T17:25:58.204Z,72.10
2022-08-05T17:28:25.161Z,72.20
2022-08-05T17:30:55.840Z,72.40
2022-08-05T17:33:23.209Z,72.30
2022-08-05T17:36:07.424Z,72.00
2022-08-05T17:38:37.315Z,72.20
2022-08-05T17:41:07.490Z,72.50
2022-08-05T17:43:53.403Z,72.60
2022-08-05T17:46:21.299Z,73.00
2022-08-05T17:48:48.272Z,72.90
2022-08-05T17:51:21.835Z,73.10
2022-08-05T17:53:50.733Z,73.60
2022-08-05T17:56:21.581Z,73.50
2022-08-05T17:58:49.921Z,73.80
2022-08-05T18:01:18.526Z,73.70
2022-08-05T18:03:58.364Z,74.20
2022-08-05T18:06:31.186Z,74.50
2022-08-05T18:08:58.406Z,74.70
2022-08-05T18:11:32.797Z,74.80
2022-08-05T18:14:03.608Z,75.40
2022-08-05T18:16:31.639Z,76.60
2022-08-05T18:18:58.578Z,77.30
2022-08-05T18:21:26.407Z,77.90
2022-08-05T18:24:12.730Z,78.60
2022-08-05T18:26:41.485Z,79.40
2022-08-05T18:29:10.823Z,79.70
2022-08-05T18:31:38.229Z,80.00
2022-08-05T18:34:12.827Z,80.40
2022-08-05T18:36:43.660Z,80.90
2022-08-05T18:39:22.443Z,80.90
2022-08-05T18:42:06.147Z,80.90
2022-08-05T18:44:55.560Z,83.70
2022-08-05T18:47:26.584Z,85.30
2022-08-05T18:50:13.038Z,86.10
2022-08-05T18:52:50.940Z,86.50
2022-08-05T18:55:19.886Z,86.90
2022-08-05T18:57:53.102Z,87.00
2022-08-05T19:00:28.693Z,87.50
2022-08-05T19:02:57.527Z,87.70
2022-08-05T19:06:13.496Z,87.00
2022-08-05T19:08:17.445Z,86.90
2022-08-05T19:10:45.766Z,87.10
2022-08-05T19:13:15.893Z,87.00
2022-08-05T19:16:00.257Z,87.10
2022-08-05T19:18:31.760Z,87.40
2022-08-05T19:20:59.714Z,86.90
2022-08-05T19:24:06.997Z,86.70
2022-08-05T19:26:16.492Z,86.70
2022-08-05T19:28:43.945Z,87.50
2022-08-05T19:31:13.247Z,87.30
2022-08-05T19:33:48.426Z,87.40
2022-08-05T19:36:27.047Z,86.40
2022-08-05T19:39:00.967Z,85.80
2022-08-05T19:41:58.557Z,85.90
2022-08-05T19:44:19.413Z,86.10
2022-08-05T19:46:46.583Z,87.10
2022-08-05T19:49:17.127Z,87.50
2022-08-05T19:52:05.703Z,87.30
2022-08-05T19:54:34.346Z,87.80
2022-08-05T19:57:06.777Z,85.80
2022-08-05T19:59:54.669Z,87.50
2022-08-05T20:02:25.983Z,85.90
2022-08-05T20:04:55.371Z,84.90
2022-08-05T20:07:45.724Z,87.70
2022-08-05T20:10:14.250Z,87.20
2022-08-05T20:12:47.851Z,88.10
2022-08-05T20:15:48.927Z,88.60
2022-08-05T20:18:09.606Z,88.20
2022-08-05T20:20:36.936Z,88.50
2022-08-05T20:23:05.626Z,88.00
2022-08-05T20:25:39.879Z,88.70
2022-08-05T20:28:13.645Z,90.00
2022-08-05T20:30:41.459Z,90.30
2022-08-05T20:33:08.821Z,90.50
2022-08-05T20:35:40.572Z,90.80
2022-08-05T20:38:20.204Z,90.60
2022-08-05T20:40:53.943Z,90.90
2022-08-05T20:43:33.220Z,91.10
2022-08-05T20:46:10.405Z,91.00
2022-08-05T20:48:45.340Z,91.10
2022-08-05T20:51:17.988Z,91.20
2022-08-05T20:53:56.895Z,91.20
2022-08-05T20:56:32.964Z,91.50
2022-08-05T20:59:14.010Z,91.30
2022-08-05T21:01:46.397Z,91.30
2022-08-05T21:04:14.166Z,91.20
2022-08-05T21:06:45.227Z,91.10
2022-08-05T21:09:14.893Z,91.40
2022-08-05T21:12:10.868Z,91.80
2022-08-05T21:14:35.200Z,92.10
2022-08-05T21:17:06.271Z,92.20
2022-08-05T21:19:46.767Z,92.30
2022-08-05T21:22:23.200Z,92.00
2022-08-05T21:24:52.350Z,92.20
2022-08-05T21:27:25.547Z,92.20
2022-08-05T21:29:56.278Z,92.20
2022-08-05T21:32:26.635Z,92.50
2022-08-05T21:35:16.781Z,92.90
2022-08-05T21:37:47.002Z,93.00
2022-08-05T21:40:14.585Z,92.80
2022-08-05T21:42:45.272Z,92.80
2022-08-05T21:45:24.864Z,92.90
2022-08-05T21:48:02.554Z,93.10
2022-08-05T21:50:33.797Z,93.50
2022-08-05T21:53:16.105Z,93.80
2022-08-05T21:56:05.263Z,93.90
2022-08-05T21:58:32.107Z,94.20
2022-08-05T22:00:59.828Z,94.20
2022-08-05T22:03:48.814Z,94.20
2022-08-05T22:06:16.406Z,94.20
2022-08-05T22:08:52.081Z,94.10
2022-08-05T22:11:35.236Z,94.50
2022-08-05T22:14:31.451Z,94.80
2022-08-05T22:16:55.968Z,95.20
2022-08-05T22:19:57.140Z,95.40
2022-08-05T22:22:11.830Z,95.50
2022-08-05T22:24:57.562Z,95.40
2022-08-05T22:28:09.354Z,95.30
2022-08-05T22:30:35.898Z,95.50
2022-08-05T22:33:15.134Z,95.70
2022-08-05T22:35:48.740Z,95.70
2022-08-05T22:38:17.187Z,96.30
2022-08-05T22:40:49.300Z,96.80
2022-08-05T22:43:36.555Z,96.70
2022-08-05T22:46:12.034Z,96.60
2022-08-05T22:48:50.222Z,96.50
2022-08-05T22:51:23.290Z,96.10
2022-08-05T22:54:04.655Z,96.00
2022-08-05T22:56:31.656Z,96.10
2022-08-05T22:59:03.246Z,96.30
2022-08-05T23:02:04.146Z,96.80
2022-08-05T23:04:33.420Z,97.40
2022-08-05T23:07:00.373Z,97.40
2022-08-05T23:09:58.199Z,97.70
2022-08-05T23:12:16.304Z,97.90
2022-08-05T23:14:43.883Z,97.90
2022-08-05T23:17:32.664Z,98.70
2022-08-05T23:20:16.635Z,98.80
2022-08-05T23:22:48.708Z,99.00
2022-08-05T23:25:51.089Z,99.20
2022-08-05T23:28:07.079Z,99.60
2022-08-05T23:30:40.055Z,99.90
2022-08-05T23:33:22.068Z,99.70
2022-08-05T23:35:56.028Z,98.90
2022-08-05T23:38:25.876Z,98.60
2022-08-05T23:40:53.156Z,98.80
2022-08-05T23:43:25.572Z,99.00
2022-08-05T23:46:19.912Z,99.10
2022-08-05T23:48:59.627Z,99.20
2022-08-05T23:51:53.975Z,99.40
2022-08-05T23:54:26.094Z,99.30
2022-08-05T23:56:54.798Z,98.90
2022-08-05T23:59:22.716Z,98.80
